Latest Weather Observations for Tasman Island

IDT60801

Issued at 7:35 pm EST Thursday 17 April 2014 (issued every 30 minutes, with the page automatically refreshed every 10 minutes)

About weather observations | Map of weather stations | Latest weather observations for TAS | Other Formats
Station Details ID: 094155 Name: TASMAN ISLAND Lat: -43.24 Lon: 148.00 Height: 240.0 m
Data from the previous 72 hours. | See also: Recent months at Tasman Island
Date/Time
EST
Temp
°C
App
Temp
°C
Dew
Point
Rel
Hum
%
Delta-T
°C
Wind Press
QNH
hPa
Press
MSL
hPa
Rain
since 9 am
mm
Dir
 
Spd
km/h
Gust
km/h
Spd
kts
Gust
kts
17/07:30pm 14.3 9.1 12.7 90 0.9 N 32 43 17 23 1017.0 - 0.0
17/07:00pm 14.2 8.7 12.6 90 0.9 N 33 44 18 24 1017.2 1017.2 0.0
17/06:30pm 14.3 9.3 12.2 87 1.2 N 30 43 16 23 1017.2 - 0.0
17/06:00pm 14.3 8.9 12.2 87 1.1 NNE 32 44 17 24 1017.2 1017.2 0.0
17/05:30pm 14.2 9.1 11.9 86 1.3 N 30 41 16 22 1017.3 - 0.0
17/05:00pm 14.4 8.7 11.2 81 1.7 N 32 43 17 23 1017.2 1017.2 0.0
17/04:30pm 14.6 9.4 11.7 83 1.6 NNE 30 41 16 22 1017.4 - 0.0
17/04:00pm 15.0 10.1 11.4 79 1.9 N 28 39 15 21 1017.6 1017.6 0.0
17/03:30pm 15.3 10.8 11.3 77 2.2 NNE 26 35 14 19 1018.0 - 0.0
17/03:00pm 16.0 11.9 11.4 74 2.5 NNE 24 37 13 20 1018.3 1018.3 0.0
17/02:30pm 16.5 11.9 8.2 58 4.3 N 22 32 12 17 1018.4 - 0.0
17/02:00pm 16.8 12.6 9.7 63 3.8 N 22 32 12 17 1018.7 1018.7 0.0
17/01:30pm 16.4 11.2 8.9 61 3.9 N 26 37 14 20 1019.1 - 0.0
17/01:00pm 16.3 11.0 9.7 65 3.5 N 28 33 15 18 1019.5 1019.5 0.0
17/12:30pm 16.3 12.3 10.6 69 3.1 N 22 30 12 16 1019.9 - 0.0
17/12:00pm 16.1 12.7 11.1 72 2.7 N 20 26 11 14 1020.3 1020.3 0.0
17/11:30am 16.1 12.5 10.6 70 3.0 N 20 30 11 16 1020.7 - 0.0
17/11:00am 16.4 13.0 11.1 71 2.9 N 20 24 11 13 1020.8 1020.8 0.0
17/10:30am 16.2 12.8 11.2 72 2.7 N 20 26 11 14 1020.8 - 0.0
17/10:00am 15.8 12.5 10.8 72 2.7 N 19 24 10 13 1020.8 1020.8 0.0
17/09:30am 15.1 11.8 11.7 80 1.9 N 20 28 11 15 1021.0 - 0.0
17/09:00am 13.7 9.7 11.8 88 1.0 N 24 28 13 15 1021.0 1021.0 0.2
17/08:30am 14.3 10.2 11.5 83 1.5 N 24 30 13 16 1021.1 - 0.2
17/08:00am 13.8 10.0 11.0 83 1.5 NNE 22 28 12 15 1020.9 1020.9 0.2
17/07:30am 13.3 8.9 10.5 83 1.5 N 24 32 13 17 1020.7 - 0.2
17/07:00am 12.8 9.1 10.2 84 1.4 N 20 28 11 15 1020.6 1020.6 0.2
17/06:30am 12.5 10.1 11.4 93 0.6 N 15 24 8 13 1020.5 - 0.2
17/06:00am 12.5 9.7 11.4 93 0.6 N 17 26 9 14 1020.4 1020.4 0.2
17/05:30am 12.6 9.8 11.3 92 0.7 N 17 24 9 13 1020.4 - 0.2
17/05:00am 12.6 9.0 11.8 95 0.4 N 22 30 12 16 1020.4 1020.4 0.2
17/04:30am 12.7 9.1 11.9 95 0.4 N 22 28 12 15 1020.3 - 0.2
17/04:00am 12.7 9.1 11.9 95 0.4 N 22 30 12 16 1020.1 1020.1 0.2
17/03:30am 12.8 8.5 11.9 94 0.5 N 26 33 14 18 1020.1 - 0.2
17/03:00am 12.9 8.1 11.8 93 0.6 N 28 37 15 20 1020.1 1020.1 0.2
17/02:30am 13.0 8.4 12.4 96 0.3 N 28 35 15 19 1020.1 - 0.2
17/02:00am 13.0 8.0 12.2 95 0.4 N 30 37 16 20 1020.1 1020.1 0.2
17/01:30am 13.2 8.2 12.1 93 0.6 N 30 37 16 20 1020.5 - 0.2
17/01:00am 13.2 7.7 11.8 91 0.8 N 32 39 17 21 1020.5 1020.5 0.2
17/12:30am 13.4 8.3 12.0 91 0.8 N 30 39 16 21 1020.6 - 0.2
17/12:00am 13.3 8.0 11.2 87 1.1 N 30 41 16 22 1020.7 1020.7 0.2
 
Date/Time
EST
Temp
°C
App
Temp
°C
Dew
Point
Rel
Hum
%
Delta-T
°C
Wind Press
QNH
hPa
Press
MSL
hPa
Rain
since 9 am
mm
Dir
 
Spd
km/h
Gust
km/h
Spd
kts
Gust
kts
16/11:30pm 13.4 7.7 11.3 87 1.1 N 32 39 17 21 1020.9 - 0.2
16/11:00pm 13.4 8.1 11.3 87 1.1 NNE 30 44 16 24 1021.0 1021.0 0.2
16/10:30pm 13.3 7.6 11.0 86 1.2 NNE 32 44 17 24 1021.0 - 0.2
16/10:00pm 13.4 7.5 11.1 86 1.2 NNE 33 46 18 25 1021.0 1021.0 0.2
16/09:30pm 13.4 7.5 11.1 86 1.2 NNE 33 46 18 25 1020.9 - 0.2
16/09:00pm 13.4 7.8 11.5 88 1.0 NNE 32 43 17 23 1020.9 1020.9 0.2
16/08:30pm 13.4 7.2 11.3 87 1.1 NNE 35 43 19 23 1020.8 - 0.2
16/08:00pm 13.3 7.6 11.2 87 1.1 NNE 32 43 17 23 1020.6 1020.6 0.2
16/07:30pm 13.2 7.2 10.9 86 1.2 NNE 33 43 18 23 1020.7 - 0.2
16/07:00pm 13.3 7.6 11.2 87 1.1 NNE 32 43 17 23 1020.8 1020.8 0.2
16/06:30pm 13.1 7.3 10.8 86 1.2 NNE 32 41 17 22 1020.7 - 0.2
16/06:00pm 13.1 7.2 10.6 85 1.3 NNE 32 43 17 23 1020.6 1020.6 0.2
16/05:30pm 13.2 7.7 10.7 85 1.3 NNE 30 39 16 21 1020.6 - 0.2
16/05:00pm 13.3 8.2 10.7 84 1.4 NNE 28 41 15 22 1020.6 1020.6 0.2
16/04:30pm 13.5 9.6 10.9 84 1.4 NNE 22 33 12 18 1020.7 - 0.2
16/04:00pm 14.0 9.1 10.0 77 2.1 NNE 26 33 14 18 1020.8 1020.8 0.2
16/03:30pm 14.1 9.8 10.7 80 1.8 NNE 24 32 13 17 1020.8 - 0.2
16/03:00pm 14.3 10.9 11.1 81 1.7 NNE 20 32 11 17 1021.0 1021.0 0.2
16/02:30pm 14.0 10.0 10.6 80 1.8 NNE 22 30 12 16 1021.2 - 0.0
16/02:00pm 14.2 10.7 11.0 81 1.7 NNE 20 30 11 16 1021.3 1021.3 0.0
16/01:30pm 14.9 12.1 11.5 80 1.8 NNE 17 30 9 16 1021.3 - 0.0
16/01:00pm 14.9 12.2 11.7 81 1.7 NNE 17 24 9 13 1021.7 1021.7 0.0
16/12:30pm 14.1 10.9 11.1 82 1.6 N 19 24 10 13 1022.0 - 0.0
16/12:00pm 13.2 9.3 10.7 85 1.3 N 22 28 12 15 1022.5 1022.5 0.0
16/11:30am 13.7 10.7 12.1 90 0.9 NNE 19 30 10 16 1022.6 - 0.0
16/11:00am 12.5 9.1 10.7 89 0.9 NNE 19 32 10 17 1022.6 1022.6 0.0
16/10:30am 11.3 8.4 11.1 99 0.1 NNE 17 26 9 14 1023.0 - 0.0
16/10:00am 12.1 9.8 11.8 98 0.2 N 15 19 8 10 1023.3 1023.3 0.0
16/09:30am 12.4 10.1 11.9 97 0.3 NNE 15 20 8 11 1023.5 - 0.0
16/09:00am 11.8 8.7 11.6 99 0.1 NNE 19 22 10 12 1023.7 1023.7 3.0
16/08:30am 11.6 10.0 11.6 100 0.0 N 11 19 6 10 1023.9 - 2.8
16/08:00am 11.8 11.5 11.6 99 0.1 WNW 4 6 2 3 1023.8 1023.8 2.6
16/07:30am 11.8 11.5 11.6 99 0.1 NNE 4 7 2 4 1023.7 - 2.6
16/07:00am 12.0 10.9 10.7 92 0.7 N 7 11 4 6 1023.6 1023.6 2.4
16/06:30am 12.1 11.2 10.7 91 0.7 N 6 17 3 9 1023.3 - 2.4
16/06:00am 12.0 11.1 10.7 92 0.7 NNE 6 17 3 9 1023.3 1023.3 2.4
16/05:30am 12.1 11.3 11.0 93 0.6 NNW 6 15 3 8 1023.2 - 2.4
16/05:00am 12.0 11.1 10.6 91 0.7 NNE 6 15 3 8 1023.4 1023.4 2.4
16/04:30am 11.8 10.8 11.0 95 0.4 NW 7 17 4 9 1023.3 - 2.4
16/04:00am 11.9 11.0 11.3 96 0.3 NE 7 17 4 9 1023.2 1023.2 2.4
16/03:30am 12.0 11.3 11.5 97 0.3 E 6 22 3 12 1023.5 - 2.4
16/03:00am 11.4 10.2 9.7 89 0.9 ENE 6 13 3 7 1023.7 1023.7 2.4
16/02:30am 11.4 10.1 10.0 91 0.7 ENE 7 11 4 6 1024.0 - 2.4
16/02:00am 11.1 9.7 10.9 99 0.1 N 9 13 5 7 1024.5 1024.5 2.4
16/01:30am 11.0 10.2 11.0 100 0.0 N 6 9 3 5 1024.9 - 2.4
16/01:00am 11.2 10.8 11.2 100 0.0 NNW 4 6 2 3 1025.0 1025.0 2.2
16/12:30am 11.0 11.0 11.0 100 0.0 N 2 4 1 2 1025.1 - 2.2
16/12:00am 10.9 9.8 10.7 99 0.1 NW 7 9 4 5 1025.2 1025.2 2.2
 
Date/Time
EST
Temp
°C
App
Temp
°C
Dew
Point
Rel
Hum
%
Delta-T
°C
Wind Press
QNH
hPa
Press
MSL
hPa
Rain
since 9 am
mm
Dir
 
Spd
km/h
Gust
km/h
Spd
kts
Gust
kts
15/11:30pm 11.2 10.4 11.0 99 0.1 WNW 6 9 3 5 1025.2 - 2.0
15/11:00pm 11.2 9.8 11.0 99 0.1 W 9 13 5 7 1025.4 1025.4 1.8
15/10:30pm 11.4 11.0 11.1 98 0.2 SW 4 7 2 4 1025.5 - 1.8
15/10:00pm 11.8 11.0 11.6 99 0.1 E 7 13 4 7 1025.5 1025.5 1.8
15/09:30pm 10.7 10.2 10.7 100 0.0 S 4 15 2 8 1025.7 - 1.8
15/09:00pm 10.6 10.4 10.6 100 0.0 W 2 6 1 3 1025.8 1025.8 1.8
15/08:30pm 11.0 10.0 11.0 100 0.0 SW 7 9 4 5 1025.8 - 1.8
15/08:00pm 10.9 10.1 10.9 100 0.0 WSW 6 11 3 6 1025.7 1025.7 1.8
15/07:30pm 10.7 9.8 10.7 100 0.0 W 6 9 3 5 1025.8 - 1.8
15/07:00pm 10.9 10.4 10.9 100 0.0 SSW 4 11 2 6 1025.6 1025.6 1.8
15/06:30pm 10.9 10.1 10.9 100 0.0 WNW 6 9 3 5 1025.4 - 1.4
15/06:00pm 11.0 10.2 11.0 100 0.0 SW 6 9 3 5 1025.2 1025.2 1.2
15/05:30pm 11.0 10.0 11.0 100 0.0 WSW 7 11 4 6 1025.1 - 1.2
15/05:00pm 11.1 10.3 10.9 99 0.1 SSW 6 15 3 8 1025.1 1025.1 0.6
15/04:30pm 11.3 10.5 11.1 99 0.1 SSW 6 13 3 7 1025.1 - 0.6
15/04:00pm 11.3 10.3 11.1 99 0.1 SW 7 13 4 7 1025.3 1025.3 0.6
15/03:30pm 11.8 10.8 11.0 95 0.4 SW 7 17 4 9 1025.3 - 0.0
15/03:00pm 11.9 10.0 10.5 91 0.7 SW 11 19 6 10 1025.4 1025.4 0.0
15/02:30pm 11.6 9.6 10.3 92 0.7 SSW 11 22 6 12 1025.4 - 0.0
15/02:00pm 12.3 10.5 10.7 90 0.8 SSW 11 22 6 12 1025.3 1025.3 0.0
15/01:30pm 12.0 10.9 10.7 92 0.7 SSW 7 19 4 10 1025.3 - 0.0
15/01:00pm 11.8 9.4 10.2 90 0.8 SSW 13 20 7 11 1025.5 1025.5 0.0
15/12:30pm 12.5 10.1 10.0 85 1.3 SW 13 22 7 12 1025.6 - 0.0
15/12:00pm 12.6 10.4 9.2 80 1.7 SW 11 19 6 10 1025.8 1025.8 0.0
15/11:30am 13.1 10.6 8.4 73 2.4 S 11 17 6 9 1026.1 - 0.0
15/11:00am 12.8 9.4 7.7 71 2.5 SSE 15 22 8 12 1026.2 1026.2 0.0
15/10:30am 11.8 9.5 9.0 83 1.4 S 11 24 6 13 1026.2 - 0.0
15/10:00am 11.5 9.1 8.5 82 1.5 S 11 20 6 11 1026.2 1026.2 0.0
15/09:30am 11.6 8.7 6.7 72 2.4 SSW 11 20 6 11 1026.1 - 0.0
15/09:00am 11.8 8.9 6.5 70 2.5 SSW 11 19 6 10 1026.1 1026.1 7.2
15/08:30am 11.8 8.9 6.3 69 2.6 SSW 11 19 6 10 1026.1 - 7.2
15/08:00am 11.6 8.2 6.1 69 2.6 SSW 13 24 7 13 1025.9 1025.9 7.2
15/07:30am 11.4 7.9 5.3 66 2.8 SSW 13 22 7 12 1025.7 - 7.2
15/07:00am 11.2 8.8 5.1 66 2.8 S 7 15 4 8 1025.5 1025.5 7.2
15/06:30am 11.2 7.7 5.3 67 2.7 S 13 26 7 14 1025.3 - 7.2
15/06:00am 11.3 7.2 6.0 70 2.5 SSW 17 28 9 15 1025.2 1025.2 7.2
15/05:30am 11.3 8.0 6.2 71 2.4 SSW 13 22 7 12 1025.1 - 7.2
15/05:00am 11.3 7.5 5.8 69 2.6 SSW 15 22 8 12 1025.0 1025.0 7.2
15/04:30am 11.2 7.5 6.1 71 2.4 SSW 15 28 8 15 1025.0 - 7.2
15/04:00am 11.1 7.1 6.5 73 2.2 SSW 17 28 9 15 1024.9 1024.9 7.2
15/03:30am 11.3 7.3 6.6 73 2.3 SSW 17 26 9 14 1024.9 - 7.2
15/03:00am 11.2 7.6 6.7 74 2.1 SSW 15 28 8 15 1024.8 1024.8 7.2
15/02:30am 11.3 7.7 6.8 74 2.2 SSW 15 24 8 13 1024.9 - 7.2
15/02:00am 11.2 6.7 6.1 71 2.4 SSW 19 24 10 13 1025.0 1025.0 7.2
15/01:30am 11.2 8.2 6.1 71 2.4 S 11 19 6 10 1025.1 - 7.2
15/01:00am 11.1 7.3 6.0 71 2.4 SSW 15 24 8 13 1025.0 1025.0 7.2
15/12:30am 11.3 7.6 6.4 72 2.3 SSW 15 24 8 13 1024.9 - 7.2
15/12:00am 11.4 8.6 7.1 75 2.1 S 11 19 6 10 1025.0 1025.0 7.2
 
Date/Time
EST
Temp
°C
App
Temp
°C
Dew
Point
Rel
Hum
%
Delta-T
°C
Wind Press
QNH
hPa
Press
MSL
hPa
Rain
since 9 am
mm
Dir
 
Spd
km/h
Gust
km/h
Spd
kts
Gust
kts
14/11:30pm 11.4 9.0 7.1 75 2.1 S 9 17 5 9 1025.0 - 7.2
14/11:00pm 11.4 8.7 7.3 76 2.0 S 11 19 6 10 1025.1 1025.1 7.2
14/10:30pm 11.3 7.8 7.0 75 2.1 SSW 15 20 8 11 1025.2 - 7.2
14/10:00pm 11.4 8.7 7.3 76 2.0 S 11 20 6 11 1025.4 1025.4 7.2
14/09:30pm 11.4 8.4 7.5 77 1.9 S 13 26 7 14 1025.3 - 7.2
14/09:00pm 11.3 7.8 7.4 77 1.9 S 15 26 8 14 1025.2 1025.2 7.2
14/08:30pm 11.3 8.3 7.8 79 1.7 S 13 26 7 14 1025.2 - 7.2
14/08:00pm 11.5 8.2 8.2 80 1.6 S 15 24 8 13 1025.0 1025.0 7.2

Other Formats:

Comma delimited format used in spreadsheet applications
http://www.bom.gov.au/fwo/IDT60801/IDT60801.95986.axf

JavaScript Object Notation format (JSON) in row-major order
http://www.bom.gov.au/fwo/IDT60801/IDT60801.95986.json